Time;durP1;ratioP1;P1;durP2;ratioP2;P2;SDS_P1;SDS_P2;PMS_P1;PMS_P2;Temp;Humidity;BMP_temperature;BMP_pressure;BME280_temperature;BME280_humidity;BME280_pressure;Samples;Min_cycle;Max_cycle;Signal;HPM_P1;HPM_P2
2023/03/16 00:00:12;;;;;;;6.10;5.40;;;;;;;;;;105579;1254;62142;-71
2023/03/16 00:02:43;;;;;;;7.20;5.80;;;;;;;;;;105483;1251;61686;-70
2023/03/16 00:05:12;;;;;;;6.90;6.20;;;;;;;;;;105495;1261;61564;-70
2023/03/16 00:07:44;;;;;;;7.10;6.40;;;;;;;;;;105536;1248;61692;-71
2023/03/16 00:10:12;;;;;;;6.90;5.80;;;;;;;;;;105460;1247;61675;-70
2023/03/16 00:12:42;;;;;;;7.60;6.20;;;;;;;;;;105451;1252;61550;-70
2023/03/16 00:15:12;;;;;;;11.20;6.40;;;;;;;;;;105476;1248;61678;-70
2023/03/16 00:17:40;;;;;;;7.50;6.30;;;;;;;;;;105446;1258;61666;-70
2023/03/16 00:20:10;;;;;;;7.30;6.20;;;;;;;;;;105444;1250;61559;-70
2023/03/16 00:22:40;;;;;;;9.20;5.90;;;;;;;;;;107090;1246;61468;-70
2023/03/16 00:25:09;;;;;;;7.60;5.90;;;;;;;;;;109113;1247;61170;-70
2023/03/16 00:27:39;;;;;;;6.60;5.50;;;;;;;;;;105992;1247;61688;-70
2023/03/16 00:30:07;;;;;;;8.30;5.50;;;;;;;;;;105609;1249;61838;-70
2023/03/16 00:32:37;;;;;;;6.30;5.50;;;;;;;;;;105861;1253;62617;-71
2023/03/16 00:35:05;;;;;;;7.10;6.00;;;;;;;;;;105534;1264;61695;-72
2023/03/16 00:37:38;;;;;;;8.30;6.20;;;;;;;;;;105446;1249;61585;-71
2023/03/16 00:40:07;;;;;;;7.10;6.20;;;;;;;;;;105470;1250;61688;-71
2023/03/16 00:42:36;;;;;;;6.90;6.10;;;;;;;;;;105497;1256;61678;-72
2023/03/16 00:45:07;;;;;;;7.70;5.90;;;;;;;;;;105484;1251;61695;-72
2023/03/16 00:47:36;;;;;;;8.30;6.30;;;;;;;;;;105484;1251;61649;-71
2023/03/16 00:50:05;;;;;;;6.10;5.10;;;;;;;;;;105527;1253;61579;-70
2023/03/16 00:52:34;;;;;;;7.40;6.20;;;;;;;;;;105508;1254;61595;-70
2023/03/16 00:55:03;;;;;;;8.70;6.70;;;;;;;;;;105481;1251;61543;-70
2023/03/16 00:57:33;;;;;;;6.20;5.40;;;;;;;;;;105539;1249;61656;-70
2023/03/16 01:00:11;;;;;;;7.30;5.90;;;;;;;;;;105372;1254;61675;-70
2023/03/16 01:02:41;;;;;;;8.20;5.40;;;;;;;;;;105450;1254;61761;-70
2023/03/16 01:05:11;;;;;;;10.10;6.10;;;;;;;;;;105484;1251;62283;-72
2023/03/16 01:07:41;;;;;;;9.70;6.50;;;;;;;;;;105450;1267;61736;-71
2023/03/16 01:10:10;;;;;;;6.80;6.10;;;;;;;;;;105425;1253;61682;-72
2023/03/16 01:12:44;;;;;;;8.10;5.60;;;;;;;;;;105522;1253;61542;-71
2023/03/16 01:15:12;;;;;;;7.80;6.00;;;;;;;;;;105345;1257;61650;-73
2023/03/16 01:17:41;;;;;;;6.30;5.60;;;;;;;;;;105489;1248;61649;-72
2023/03/16 01:20:11;;;;;;;10.00;5.60;;;;;;;;;;105632;1251;61570;-72
2023/03/16 01:22:41;;;;;;;7.10;6.40;;;;;;;;;;105637;1250;61589;-72
2023/03/16 01:25:10;;;;;;;7.40;5.50;;;;;;;;;;105518;1253;61637;-72
2023/03/16 01:29:43;;;;;;;6.40;5.70;;;;;;;13.39;84.66;98809.27;101682;1289;615804;-71
2023/03/16 01:32:11;;;;;;;8.50;5.30;;;;;;;14.36;72.75;98808.94;104556;1262;60468;-73
2023/03/16 01:34:38;;;;;;;10.00;6.20;;;;;;;14.35;72.04;98807.59;104520;1260;60540;-72
2023/03/16 01:37:05;;;;;;;7.50;6.00;;;;;;;14.33;71.90;98808.98;104389;1256;71988;-72
2023/03/16 01:39:49;;;;;;;7.10;6.20;;;;;;;14.27;72.37;98810.77;104345;1259;69099;-72
2023/03/16 01:42:16;;;;;;;7.60;5.90;;;;;;;14.17;72.50;98809.23;104235;1278;164237;-71
2023/03/16 01:44:55;;;;;;;7.30;5.80;;;;;;;14.21;72.35;98810.20;104583;1260;60550;-69
2023/03/16 01:47:26;;;;;;;6.20;5.60;;;;;;;14.23;72.22;98813.23;104787;1256;60757;-70
2023/03/16 01:49:54;;;;;;;9.20;6.70;;;;;;;14.11;71.95;98817.73;104639;1257;71783;-70
2023/03/16 01:52:32;;;;;;;10.40;6.30;;;;;;;14.06;72.93;98816.71;104737;1259;69488;-72
2023/03/16 01:55:02;;;;;;;7.70;6.90;;;;;;;14.09;72.73;98818.23;104648;1253;72476;-70
2023/03/16 01:57:35;;;;;;;7.50;6.00;;;;;;;14.13;71.68;98825.56;104605;1262;61093;-73
2023/03/16 02:00:09;;;;;;;7.90;6.30;;;;;;;14.13;71.62;98829.55;104634;1260;60870;-71
2023/03/16 02:02:50;;;;;;;8.50;5.90;;;;;;;14.20;71.63;98833.98;104517;1256;73763;-73
2023/03/16 02:05:43;;;;;;;8.90;5.90;;;;;;;14.25;71.50;98831.88;104648;1272;69692;-71
2023/03/16 02:08:13;;;;;;;7.90;6.20;;;;;;;14.29;70.26;98823.18;104624;1260;72289;-72
2023/03/16 02:10:41;;;;;;;7.40;5.60;;;;;;;14.25;70.27;98825.39;104595;1255;60882;-73
2023/03/16 02:13:12;;;;;;;8.70;5.50;;;;;;;14.18;70.21;98823.21;104569;1264;60863;-62
2023/03/16 02:15:40;;;;;;;8.00;6.20;;;;;;;14.15;70.37;98829.80;104562;1257;73789;-70
2023/03/16 02:18:07;;;;;;;10.10;6.40;;;;;;;14.09;70.39;98835.16;104603;1261;68923;-69
2023/03/16 02:20:48;;;;;;;7.80;6.50;;;;;;;14.02;70.46;98844.27;104693;1254;71740;-69
2023/03/16 02:23:17;;;;;;;8.30;6.10;;;;;;;14.00;70.38;98849.90;105559;1254;60841;-68
2023/03/16 02:26:11;;;;;;;6.60;5.90;;;;;;;14.04;70.21;98852.74;108202;1253;58885;-72
2023/03/16 02:28:51;;;;;;;7.20;6.10;;;;;;;14.07;69.37;98856.30;108649;1253;74095;-69
2023/03/16 02:31:21;;;;;;;6.90;5.90;;;;;;;13.99;69.96;98861.39;108245;1254;68889;-70
2023/03/16 02:34:08;;;;;;;7.70;5.30;;;;;;;13.97;70.71;98865.55;106026;1253;71522;-68
2023/03/16 02:36:35;;;;;;;;;;;;;;;14.04;70.60;98865.09;104624;1261;62422;-68
2023/03/16 02:39:04;;;;;;;16.90;6.40;;;;;;;14.04;70.41;98862.44;104475;1268;60654;-68
2023/03/16 02:41:38;;;;;;;7.60;6.10;;;;;;;13.93;70.70;98856.02;104251;1262;72648;-69
2023/03/16 02:44:15;;;;;;;8.30;6.30;;;;;;;13.91;70.36;98856.48;104341;1261;69215;-70
2023/03/16 02:46:45;;;;;;;6.80;6.00;;;;;;;13.87;71.03;98851.30;104346;1257;72194;-70
2023/03/16 02:49:24;;;;;;;8.00;6.80;;;;;;;13.76;70.42;98843.27;104212;1264;61239;-69
2023/03/16 02:51:51;;;;;;;9.20;6.80;;;;;;;13.70;70.80;98842.23;104349;1277;61061;-68
2023/03/16 02:54:19;;;;;;;7.80;6.90;;;;;;;13.69;71.53;98837.90;104377;1263;72107;-69
2023/03/16 02:56:46;;;;;;;8.30;6.80;;;;;;;13.71;70.66;98840.25;104299;1263;69426;-69
2023/03/16 02:59:13;;;;;;;8.40;7.10;;;;;;;13.70;70.05;98838.73;104319;1257;71018;-70
2023/03/16 03:01:41;;;;;;;8.20;6.50;;;;;;;13.71;71.07;98842.36;104570;1267;60986;-70
2023/03/16 03:04:09;;;;;;;10.10;6.80;;;;;;;13.79;69.67;98839.87;104581;1259;60765;-70
2023/03/16 03:06:36;;;;;;;9.70;6.90;;;;;;;13.77;70.41;98840.05;104652;1261;73489;-70
2023/03/16 03:09:04;;;;;;;7.20;6.40;;;;;;;13.75;70.10;98842.56;104606;1273;69237;-69
2023/03/16 03:11:31;;;;;;;6.90;6.10;;;;;;;13.73;70.42;98844.52;104687;1269;70991;-69
2023/03/16 03:13:58;;;;;;;10.30;7.60;;;;;;;13.70;71.27;98842.42;104680;1256;60884;-70
2023/03/16 03:16:27;;;;;;;9.70;6.90;;;;;;;13.69;71.03;98841.63;104702;1252;60857;-63
2023/03/16 03:18:55;;;;;;;9.90;7.60;;;;;;;13.65;70.92;98846.64;104568;1263;71647;-65
2023/03/16 03:21:23;;;;;;;10.30;7.70;;;;;;;13.58;71.53;98850.08;104614;1256;68350;-66
2023/03/16 03:23:50;;;;;;;10.00;7.80;;;;;;;13.55;72.44;98855.44;104570;1275;72046;-67
2023/03/16 03:26:17;;;;;;;9.00;7.70;;;;;;;13.50;72.40;98857.13;106569;1253;60813;-66
2023/03/16 03:28:45;;;;;;;9.50;8.50;;;;;;;13.52;72.40;98847.86;106321;1254;61883;-65
2023/03/16 03:31:16;;;;;;;11.20;9.30;;;;;;;13.49;72.09;98844.73;104627;1253;72490;-66
2023/03/16 03:33:44;;;;;;;11.90;9.30;;;;;;;13.37;74.01;98844.46;104727;1257;68938;-66
2023/03/16 03:36:11;;;;;;;11.80;9.60;;;;;;;13.35;73.77;98843.02;104538;1267;71448;-66
2023/03/16 03:38:39;;;;;;;11.80;9.70;;;;;;;13.30;75.04;98840.91;104964;1251;60772;-66
2023/03/16 03:41:06;;;;;;;17.30;10.90;;;;;;;13.29;74.90;98849.89;104862;1250;60756;-66
2023/03/16 03:43:35;;;;;;;17.90;11.40;;;;;;;13.28;75.67;98854.58;104859;1267;72632;-66
2023/03/16 03:46:02;;;;;;;16.10;11.30;;;;;;;13.25;75.47;98861.04;104847;1250;69058;-66
2023/03/16 03:48:32;;;;;;;19.40;12.40;;;;;;;13.24;76.27;98860.42;104897;1250;71565;-65
2023/03/16 03:50:59;;;;;;;18.80;12.30;;;;;;;13.18;76.12;98859.58;104527;1250;60805;-65
2023/03/16 03:53:45;;;;;;;18.20;12.10;;;;;;;13.15;77.31;98864.91;104800;1250;60811;-65
2023/03/16 03:56:48;;;;;;;19.60;12.60;;;;;;;13.13;78.22;98867.64;104820;1249;73575;-66
2023/03/16 03:59:15;;;;;;;20.30;14.00;;;;;;;13.04;77.89;98864.38;104907;1262;68952;-65
2023/03/16 04:02:05;;;;;;;17.90;13.00;;;;;;;12.96;80.17;98856.83;104769;1254;72862;-65
2023/03/16 04:04:50;;;;;;;21.50;13.60;;;;;;;12.97;80.20;98854.64;104774;1256;60860;-65
2023/03/16 04:07:17;;;;;;;20.40;14.80;;;;;;;12.95;80.21;98864.09;104935;1267;61212;-66
2023/03/16 04:09:44;;;;;;;22.10;14.10;;;;;;;12.90;80.24;98865.64;104802;1256;72450;-66
2023/03/16 04:12:20;;;;;;;21.30;13.80;;;;;;;12.91;81.50;98865.55;104589;1257;69530;-66
2023/03/16 04:14:48;;;;;;;22.10;14.80;;;;;;;12.93;81.20;98864.77;104912;1253;71527;-66
2023/03/16 04:17:16;;;;;;;;;;;;;;;12.89;83.12;98868.88;104915;1253;60894;-66
2023/03/16 04:19:44;;;;;;;20.90;15.10;;;;;;;12.90;85.93;98867.56;104591;1273;60870;-66
2023/03/16 04:22:13;;;;;;;28.60;16.10;;;;;;;12.89;83.25;98867.98;104873;1250;72542;-65
2023/03/16 04:24:42;;;;;;;25.10;15.60;;;;;;;12.89;84.34;98863.42;104582;1250;69179;-65
2023/03/16 04:27:10;;;;;;;29.40;17.10;;;;;;;12.94;84.20;98862.77;108799;1250;72226;-66
2023/03/16 04:29:38;;;;;;;26.10;16.00;;;;;;;12.95;84.73;98865.50;106176;1252;60454;-66
2023/03/16 04:32:05;;;;;;;22.90;16.00;;;;;;;12.96;84.62;98869.67;105007;1266;60863;-62
2023/03/16 04:34:33;;;;;;;24.10;16.90;;;;;;;12.93;85.10;98872.83;104906;1262;72914;-69
2023/03/16 04:37:02;;;;;;;23.30;16.20;;;;;;;12.91;85.75;98878.44;105305;1256;70581;-70
2023/03/16 04:39:31;;;;;;;22.90;15.60;;;;;;;12.91;85.93;98884.77;104976;1256;71139;-70
2023/03/16 04:41:58;;;;;;;26.60;17.10;;;;;;;12.95;85.51;98888.02;104791;1251;60900;-70
2023/03/16 04:44:26;;;;;;;22.00;15.50;;;;;;;12.97;85.57;98884.73;104719;1271;60866;-70
2023/03/16 04:46:53;;;;;;;26.30;17.40;;;;;;;13.00;85.30;98889.63;104814;1256;72209;-70
2023/03/16 04:49:21;;;;;;;;;;;;;;;12.95;85.52;98891.16;104783;1255;68640;-70
2023/03/16 04:51:49;;;;;;;19.90;14.80;;;;;;;12.97;88.49;98889.78;104750;1255;72249;-71
2023/03/16 04:54:18;;;;;;;22.10;15.10;;;;;;;12.97;85.67;98894.77;104710;1252;60888;-70
2023/03/16 04:56:45;;;;;;;24.90;14.90;;;;;;;12.93;85.89;98900.62;104836;1258;60776;-70
2023/03/16 04:59:38;;;;;;;26.30;15.80;;;;;;;12.92;87.67;98898.96;104947;1257;73134;-70
2023/03/16 05:02:13;;;;;;;24.70;16.30;;;;;;;12.90;85.98;98901.86;105029;1250;69123;-70
2023/03/16 05:04:42;;;;;;;27.00;16.50;;;;;;;12.91;86.17;98907.30;104945;1251;72757;-70
2023/03/16 05:07:14;;;;;;;25.70;16.40;;;;;;;12.84;86.15;98908.25;104974;1266;60877;-69
2023/03/16 05:09:46;;;;;;;25.80;16.40;;;;;;;12.81;85.52;98912.46;104925;1255;60768;-70
2023/03/16 05:12:13;;;;;;;25.30;16.60;;;;;;;12.73;86.06;98913.14;104678;1256;73283;-70
2023/03/16 05:14:45;;;;;;;22.80;16.20;;;;;;;12.70;86.94;98915.25;104657;1253;70162;-70
2023/03/16 05:17:21;;;;;;;21.90;15.40;;;;;;;12.68;85.83;98921.05;104783;1271;72444;-69
2023/03/16 05:19:48;;;;;;;24.60;16.20;;;;;;;12.58;86.51;98926.89;105002;1251;60844;-70
2023/03/16 05:22:19;;;;;;;22.10;15.60;;;;;;;12.57;85.50;98934.20;104928;1250;60764;-69
2023/03/16 05:25:13;;;;;;;21.10;14.70;;;;;;;12.50;86.48;98940.77;105012;1251;72248;-70
2023/03/16 05:27:47;;;;;;;26.50;14.90;;;;;;;12.45;85.20;98946.33;104975;1252;69830;-70
2023/03/16 05:30:19;;;;;;;30.30;16.40;;;;;;;12.41;86.73;98957.67;104960;1258;71489;-63
2023/03/16 05:32:46;;;;;;;25.30;15.80;;;;;;;12.41;86.78;98965.42;105053;1251;60927;-62
2023/03/16 05:35:21;;;;;;;23.70;14.60;;;;;;;12.42;85.51;98969.71;104880;1257;60849;-69
2023/03/16 05:37:51;;;;;;;22.20;14.80;;;;;;;12.37;85.53;98970.79;104741;1264;72709;-63
2023/03/16 05:40:21;;;;;;;23.50;14.60;;;;;;;12.33;83.89;98973.79;105178;1250;68226;-62
2023/03/16 05:42:56;;;;;;;21.00;13.20;;;;;;;12.27;84.31;98971.89;104607;1265;72063;-64
2023/03/16 05:45:27;;;;;;;18.20;12.10;;;;;;;12.22;83.02;98970.23;104586;1254;61692;-68
2023/03/16 05:48:08;;;;;;;18.90;12.10;;;;;;;12.22;82.88;98968.17;104961;1254;61047;-64
2023/03/16 05:50:38;;;;;;;20.40;11.80;;;;;;;12.22;83.22;98971.13;104688;1256;74556;-64
2023/03/16 05:53:05;;;;;;;18.60;12.20;;;;;;;12.15;82.87;98968.06;104910;1254;68284;-63
2023/03/16 05:55:32;;;;;;;17.60;11.30;;;;;;;12.03;83.72;98964.17;104585;1255;73199;-65
2023/03/16 05:58:00;;;;;;;19.10;12.40;;;;;;;11.91;85.64;98965.92;104847;1255;61693;-64
2023/03/16 06:00:31;;;;;;;21.30;11.50;;;;;;;11.88;85.73;98966.79;104635;1265;61689;-69
2023/03/16 06:03:07;;;;;;;18.20;11.30;;;;;;;11.84;86.17;98965.25;104846;1250;75391;-70
2023/03/16 06:05:37;;;;;;;15.20;10.90;;;;;;;11.82;86.07;98965.73;104594;1250;69318;-66
2023/03/16 06:08:05;;;;;;;17.40;11.40;;;;;;;11.82;85.88;98969.26;104578;1253;72770;-64
2023/03/16 06:10:35;;;;;;;17.80;11.70;;;;;;;11.82;86.63;98964.36;104660;1273;61711;-65
2023/03/16 06:13:02;;;;;;;16.70;10.80;;;;;;;11.81;86.37;98966.33;105022;1253;61700;-66
2023/03/16 06:15:31;;;;;;;18.60;11.30;;;;;;;11.83;86.40;98972.52;104633;1257;73518;-66
2023/03/16 06:18:06;;;;;;;15.40;10.50;;;;;;;11.86;87.69;98982.18;104952;1250;68936;-69
2023/03/16 06:20:39;;;;;;;18.30;11.20;;;;;;;11.90;87.89;98984.11;104645;1258;72229;-68
2023/03/16 06:23:07;;;;;;;19.70;11.30;;;;;;;11.90;87.43;98987.20;104883;1255;61711;-69
2023/03/16 06:25:34;;;;;;;21.50;12.40;;;;;;;11.90;88.07;98990.08;105250;1258;61692;-69
2023/03/16 06:28:03;;;;;;;18.70;11.10;;;;;;;11.91;87.94;98995.63;104737;1268;74140;-65
2023/03/16 06:30:32;;;;;;;18.10;10.90;;;;;;;11.95;88.52;98998.18;104819;1253;68956;-65
2023/03/16 06:33:00;;;;;;;20.10;12.20;;;;;;;11.98;88.26;98999.06;104856;1257;71869;-65
2023/03/16 06:35:28;;;;;;;19.90;12.00;;;;;;;11.97;91.15;99004.05;105081;1251;61689;-66
2023/03/16 06:38:15;;;;;;;;;;;;;;;11.97;90.14;99010.05;105107;1253;62204;-65
2023/03/16 06:41:09;;;;;;;19.60;11.10;;;;;;;12.00;91.94;99017.04;104945;1251;72708;-65
2023/03/16 06:43:38;;;;;;;19.80;11.90;;;;;;;11.98;89.84;99011.52;105076;1250;68121;-71
2023/03/16 06:46:06;;;;;;;18.40;11.20;;;;;;;11.99;89.23;99013.45;105005;1254;73227;-67
2023/03/16 06:48:37;;;;;;;19.70;11.60;;;;;;;11.97;89.54;99014.08;105012;1257;61701;-68
2023/03/16 06:51:06;;;;;;;23.20;12.40;;;;;;;11.94;90.27;99015.14;104966;1262;61691;-67
2023/03/16 06:53:34;;;;;;;20.40;11.40;;;;;;;11.91;90.27;99013.19;104836;1265;72826;-69
2023/03/16 06:56:01;;;;;;;20.80;12.40;;;;;;;11.90;89.75;99014.44;104953;1253;68966;-66
2023/03/16 06:58:34;;;;;;;18.50;11.00;;;;;;;11.92;89.98;99021.92;104750;1251;73305;-68
2023/03/16 07:01:04;;;;;;;18.20;11.70;;;;;;;11.93;90.05;99027.99;104721;1271;61680;-67
2023/03/16 07:03:32;;;;;;;19.10;11.60;;;;;;;11.90;90.88;99027.45;104596;1258;61063;-68
2023/03/16 07:06:08;;;;;;;19.40;12.00;;;;;;;11.92;90.57;99031.73;104739;1257;73321;-69
2023/03/16 07:08:37;;;;;;;17.60;11.50;;;;;;;11.96;89.64;99029.07;105149;1252;69360;-67
2023/03/16 07:11:04;;;;;;;20.00;11.90;;;;;;;11.99;89.47;99029.73;105183;1256;73020;-67
2023/03/16 07:13:31;;;;;;;23.10;11.10;;;;;;;11.99;90.80;99032.02;105009;1257;61656;-62
2023/03/16 07:15:58;;;;;;;22.20;11.80;;;;;;;12.06;89.76;99032.70;105311;1255;61681;-65
2023/03/16 07:18:29;;;;;;;20.10;11.40;;;;;;;12.08;88.85;99031.86;104985;1251;74344;-64
2023/03/16 07:20:56;;;;;;;17.90;11.30;;;;;;;12.09;88.44;99037.79;104704;1257;68891;-64
2023/03/16 07:23:25;;;;;;;21.20;11.90;;;;;;;12.09;88.55;99043.20;104612;1263;71627;-65
2023/03/16 07:25:57;;;;;;;17.40;11.50;;;;;;;12.10;88.03;99048.27;104865;1270;61694;-67
2023/03/16 07:28:26;;;;;;;18.80;12.10;;;;;;;12.09;87.62;99047.80;104858;1255;62251;-66
2023/03/16 07:30:54;;;;;;;17.70;11.70;;;;;;;12.06;88.08;99047.27;108640;1251;75281;-65
2023/03/16 07:33:35;;;;;;;20.00;12.00;;;;;;;12.10;88.10;99049.66;108757;1251;69090;-67
2023/03/16 07:36:04;;;;;;;17.00;11.40;;;;;;;12.15;87.13;99054.66;108688;1253;72057;-63
2023/03/16 07:38:32;;;;;;;;;;;;;;;12.12;87.55;99057.13;105598;1252;61655;-68
2023/03/16 07:41:04;;;;;;;17.00;10.60;;;;;;;12.15;89.32;99059.56;104944;1253;61696;-63
2023/03/16 07:43:33;;;;;;;18.40;11.00;;;;;;;12.17;88.00;99061.92;104883;1255;73360;-64
2023/03/16 07:46:00;;;;;;;15.80;10.60;;;;;;;12.19;87.29;99060.40;104726;1257;68080;-63
2023/03/16 07:48:28;;;;;;;;;;;;;;;12.21;86.11;99063.94;105530;1253;72463;-63
2023/03/16 07:50:59;;;;;;;17.80;12.00;;;;;;;12.22;86.88;99064.27;108723;1251;59652;-61
2023/03/16 07:53:32;;;;;;;18.00;11.60;;;;;;;12.22;85.83;99062.50;107364;1256;61676;-63
2023/03/16 07:56:25;;;;;;;17.70;12.00;;;;;;;12.23;85.96;99067.51;104741;1256;73285;-67
2023/03/16 07:59:04;;;;;;;16.70;11.30;;;;;;;12.21;86.21;99071.86;105109;1253;67842;-61
2023/03/16 08:01:33;;;;;;;;;;;;;;;12.25;85.37;99075.86;105073;1251;72864;-61
2023/03/16 08:04:00;;;;;;;20.70;12.30;;;;;;;12.34;86.40;99072.34;104754;1266;61832;-61
2023/03/16 08:06:29;;;;;;;17.40;12.10;;;;;;;12.41;84.41;99076.86;104985;1270;61700;-62
2023/03/16 08:08:56;;;;;;;20.00;12.10;;;;;;;12.47;83.37;99074.17;104619;1268;72485;-64
2023/03/16 08:11:28;;;;;;;21.40;13.20;;;;;;;12.51;82.73;99070.80;104584;1255;69103;-62
2023/03/16 08:13:58;;;;;;;21.00;12.70;;;;;;;12.54;82.10;99069.58;105090;1252;72074;-61
2023/03/16 08:16:34;;;;;;;18.60;12.30;;;;;;;12.52;82.08;99077.77;104669;1257;61788;-63
2023/03/16 08:19:04;;;;;;;18.60;12.40;;;;;;;12.52;82.42;99081.28;104887;1254;60545;-63
2023/03/16 08:21:33;;;;;;;18.40;13.10;;;;;;;12.51;80.87;99082.95;105148;1267;74146;-62
2023/03/16 08:24:05;;;;;;;18.50;12.60;;;;;;;12.50;80.94;99083.33;104611;1259;68298;-61
2023/03/16 08:26:36;;;;;;;22.30;12.80;;;;;;;12.45;81.37;99073.96;105122;1253;71695;-62
2023/03/16 08:29:06;;;;;;;20.50;12.60;;;;;;;12.51;81.66;99075.73;104974;1252;61741;-63
2023/03/16 08:31:34;;;;;;;16.80;12.50;;;;;;;12.55;81.39;99074.45;105308;1261;62132;-62
2023/03/16 08:34:11;;;;;;;19.00;12.30;;;;;;;12.60;80.29;99074.83;105019;1254;74147;-63
2023/03/16 08:36:43;;;;;;;22.00;14.20;;;;;;;12.66;80.42;99078.83;105279;1258;68841;-63
2023/03/16 08:39:12;;;;;;;18.80;12.50;;;;;;;12.73;80.08;99083.58;105166;1254;73023;-63
2023/03/16 08:41:42;;;;;;;18.10;12.50;;;;;;;12.78;79.63;99089.56;105221;1254;61731;-63
2023/03/16 08:44:18;;;;;;;17.70;12.60;;;;;;;12.81;79.05;99090.27;104918;1265;61580;-64
2023/03/16 08:46:46;;;;;;;18.20;11.50;;;;;;;12.85;78.91;99092.67;105068;1254;72856;-64
2023/03/16 08:49:14;;;;;;;16.40;12.40;;;;;;;12.90;78.02;99092.91;104737;1253;67965;-63
2023/03/16 08:51:45;;;;;;;20.60;13.40;;;;;;;12.92;76.25;99100.51;104639;1257;73255;-63
2023/03/16 08:54:12;;;;;;;23.60;13.30;;;;;;;12.95;76.91;99106.82;104896;1264;62302;-64
2023/03/16 08:56:42;;;;;;;20.30;13.40;;;;;;;12.95;77.25;99112.12;104498;1251;61687;-63
2023/03/16 08:59:09;;;;;;;20.60;13.40;;;;;;;12.90;77.27;99116.48;104589;1260;72561;-64
2023/03/16 09:01:55;;;;;;;19.00;13.00;;;;;;;12.97;77.80;99120.22;104957;1252;68395;-63
2023/03/16 09:04:23;;;;;;;23.50;13.20;;;;;;;13.04;77.09;99120.73;104790;1256;71354;-63
2023/03/16 09:06:52;;;;;;;17.00;12.00;;;;;;;13.08;77.20;99118.89;104587;1268;61701;-63
2023/03/16 09:09:34;;;;;;;16.40;12.10;;;;;;;13.18;76.39;99116.85;104865;1256;61700;-63
2023/03/16 09:12:03;;;;;;;20.00;12.60;;;;;;;13.11;74.63;99118.53;104670;1257;74785;-63
2023/03/16 09:14:30;;;;;;;18.80;13.40;;;;;;;13.05;75.93;99119.08;104906;1254;69379;-62
2023/03/16 09:16:58;;;;;;;20.30;12.50;;;;;;;12.99;76.61;99120.13;104748;1254;72360;-63
2023/03/16 09:19:30;;;;;;;20.00;12.70;;;;;;;13.05;76.66;99116.94;104882;1260;61682;-64
2023/03/16 09:22:18;;;;;;;15.90;11.90;;;;;;;13.01;76.33;99118.59;105044;1254;61708;-63
2023/03/16 09:24:48;;;;;;;17.60;11.70;;;;;;;13.03;77.44;99123.98;104978;1259;73525;-65
2023/03/16 09:27:16;;;;;;;17.50;11.50;;;;;;;13.11;77.70;99126.06;104797;1253;69156;-62
2023/03/16 09:29:48;;;;;;;16.90;11.40;;;;;;;13.23;77.06;99126.95;104546;1254;72259;-60
2023/03/16 09:32:16;;;;;;;18.30;12.00;;;;;;;13.27;76.09;99130.73;104796;1257;61788;-61
2023/03/16 09:34:44;;;;;;;17.90;12.50;;;;;;;13.29;76.04;99132.39;105129;1254;61610;-62
2023/03/16 09:37:11;;;;;;;;;;;;;;;13.30;75.50;99134.60;104719;1254;73369;-62
2023/03/16 09:39:38;;;;;;;17.90;12.00;;;;;;;13.31;76.05;99133.73;104988;1254;69069;-61
2023/03/16 09:42:27;;;;;;;20.00;13.30;;;;;;;13.27;76.84;99136.02;105034;1254;71448;-61
2023/03/16 09:45:04;;;;;;;27.50;15.50;;;;;;;13.39;76.66;99132.30;104658;1254;62074;-61
2023/03/16 09:47:32;;;;;;;25.40;14.80;;;;;;;13.46;75.96;99137.87;104919;1254;61621;-61
2023/03/16 09:50:05;;;;;;;22.70;14.90;;;;;;;13.46;75.93;99141.03;104984;1255;72507;-62
2023/03/16 09:52:52;;;;;;;18.80;13.20;;;;;;;13.52;74.92;99140.69;105023;1253;69088;-63
2023/03/16 09:55:27;;;;;;;22.10;13.10;;;;;;;13.55;74.64;99140.46;104513;1274;71671;-61
2023/03/16 09:57:56;;;;;;;18.80;12.50;;;;;;;13.45;75.26;99142.13;104828;1254;61685;-62
2023/03/16 10:00:32;;;;;;;18.70;12.50;;;;;;;13.42;75.66;99135.28;105454;1257;61620;-62
2023/03/16 10:03:16;;;;;;;17.60;11.70;;;;;;;13.50;75.94;99140.75;108497;1252;73893;-62
2023/03/16 10:05:44;;;;;;;16.60;11.30;;;;;;;13.63;75.37;99136.06;108689;1254;68934;-62
2023/03/16 10:08:24;;;;;;;18.30;11.60;;;;;;;13.69;74.91;99136.23;108430;1251;72141;-62
2023/03/16 10:10:54;;;;;;;15.50;10.70;;;;;;;13.76;75.05;99137.20;108190;1254;61559;-66
2023/03/16 10:13:35;;;;;;;15.80;11.00;;;;;;;13.78;74.15;99132.67;105208;1257;61669;-64
2023/03/16 10:16:11;;;;;;;17.00;11.50;;;;;;;13.69;74.42;99134.15;105211;1254;73158;-66
2023/03/16 10:18:46;;;;;;;17.70;11.10;;;;;;;13.74;73.98;99133.66;104919;1254;69108;-64
2023/03/16 10:21:15;;;;;;;15.70;10.60;;;;;;;13.82;73.47;99136.13;105168;1254;71683;-65
2023/03/16 10:23:45;;;;;;;15.80;11.20;;;;;;;13.84;73.09;99140.55;104737;1255;61789;-64
2023/03/16 10:26:17;;;;;;;18.30;11.00;;;;;;;13.82;72.35;99147.19;104819;1261;60986;-65
2023/03/16 10:28:45;;;;;;;15.90;11.60;;;;;;;13.84;72.36;99153.23;106706;1254;73508;-65
2023/03/16 10:31:12;;;;;;;15.70;11.20;;;;;;;13.88;72.84;99155.48;108693;1254;69064;-66
2023/03/16 10:33:39;;;;;;;18.20;11.70;;;;;;;13.94;72.31;99156.98;106119;1251;72808;-65
2023/03/16 10:36:24;;;;;;;17.30;10.70;;;;;;;13.95;72.29;99157.64;104810;1256;61548;-64
2023/03/16 10:38:54;;;;;;;18.60;11.50;;;;;;;13.85;72.10;99157.61;105648;1252;61717;-65
2023/03/16 10:41:32;;;;;;;20.10;11.90;;;;;;;13.82;71.89;99164.81;104964;1258;72743;-66
2023/03/16 10:44:15;;;;;;;19.10;11.70;;;;;;;13.86;72.29;99162.83;104649;1258;70228;-65
2023/03/16 10:47:04;;;;;;;17.70;11.60;;;;;;;13.91;72.16;99166.20;105141;1255;73263;-65
2023/03/16 10:49:41;;;;;;;18.50;11.70;;;;;;;13.94;72.08;99161.40;105013;1262;61700;-66
2023/03/16 10:52:12;;;;;;;16.70;10.80;;;;;;;13.99;70.87;99165.52;104857;1256;61583;-66
2023/03/16 10:54:40;;;;;;;17.10;11.30;;;;;;;14.00;70.04;99167.34;104680;1253;74406;-64
2023/03/16 10:57:32;;;;;;;17.40;11.80;;;;;;;13.98;70.20;99163.27;104709;1253;68344;-64
2023/03/16 11:00:14;;;;;;;16.40;12.60;;;;;;;13.97;70.14;99158.58;104619;1258;72275;-64
2023/03/16 11:02:41;;;;;;;17.10;11.30;;;;;;;13.94;69.89;99157.05;104929;1257;61595;-65
2023/03/16 11:05:17;;;;;;;17.60;11.60;;;;;;;13.89;70.43;99159.46;104935;1256;61789;-66
2023/03/16 11:07:59;;;;;;;15.70;10.50;;;;;;;13.85;70.85;99161.10;104730;1253;73393;-63
2023/03/16 11:10:32;;;;;;;15.10;10.30;;;;;;;13.90;70.62;99163.41;104716;1255;68994;-63
2023/03/16 11:13:13;;;;;;;13.80;10.40;;;;;;;13.91;70.15;99164.40;104647;1264;71670;-63
2023/03/16 11:15:56;;;;;;;11.00;9.50;;;;;;;13.92;70.11;99161.73;105044;1251;61698;-66
2023/03/16 11:18:29;;;;;;;12.60;9.70;;;;;;;13.98;69.47;99156.92;105089;1251;61714;-64
2023/03/16 11:20:59;;;;;;;12.10;9.00;;;;;;;14.00;69.96;99159.77;104710;1257;73581;-62
2023/03/16 11:23:37;;;;;;;14.40;9.60;;;;;;;13.93;69.33;99161.52;104985;1260;70354;-63
2023/03/16 11:26:06;;;;;;;15.10;9.30;;;;;;;13.80;70.72;99169.19;104899;1251;72358;-63
2023/03/16 11:28:37;;;;;;;13.80;10.30;;;;;;;13.77;70.24;99171.14;104682;1254;62056;-62
2023/03/16 11:31:11;;;;;;;14.30;10.40;;;;;;;13.74;70.53;99173.64;108115;1251;60807;-63
2023/03/16 11:33:39;;;;;;;14.80;9.60;;;;;;;13.76;70.88;99177.73;106950;1251;73315;-62
2023/03/16 11:36:11;;;;;;;14.00;9.50;;;;;;;13.76;70.61;99173.50;104686;1255;69641;-62
2023/03/16 11:38:52;;;;;;;12.60;9.10;;;;;;;13.80;70.62;99177.44;105022;1269;71668;-64
2023/03/16 11:41:27;;;;;;;15.10;9.40;;;;;;;13.89;69.75;99177.44;105058;1254;61614;-63
2023/03/16 11:43:56;;;;;;;13.70;9.50;;;;;;;13.88;69.37;99188.58;104916;1256;61611;-62
2023/03/16 11:46:32;;;;;;;15.10;9.40;;;;;;;13.89;69.21;99191.02;104672;1257;74176;-63
2023/03/16 11:49:34;;;;;;;11.20;8.80;;;;;;;13.85;69.16;99195.62;104882;1260;69500;-62
2023/03/16 11:52:27;;;;;;;13.50;8.90;;;;;;;13.83;68.59;99199.27;105036;1254;73540;-62
2023/03/16 11:55:28;;;;;;;11.00;8.50;;;;;;;13.83;68.89;99200.89;104896;1257;61644;-63
2023/03/16 11:58:06;;;;;;;13.00;8.40;;;;;;;13.84;68.46;99206.46;104887;1251;61682;-62